Time;durP1;ratioP1;P1;durP2;ratioP2;P2;SDS_P1;SDS_P2;PMS_P1;PMS_P2;Temp;Humidity;BMP_temperature;BMP_pressure;BME280_temperature;BME280_humidity;BME280_pressure;Samples;Min_cycle;Max_cycle;Signal;HPM_P1;HPM_P2
2023/12/30 00:00:23;;;;;;;6.63;1.25;;;6.10;99.90;;;;;;4953082;29;20536;-81
2023/12/30 00:02:51;;;;;;;7.03;1.25;;;6.40;99.90;;;;;;4961909;29;20039;-81
2023/12/30 00:05:17;;;;;;;5.22;1.08;;;5.80;99.90;;;;;;4940723;29;20036;-81
2023/12/30 00:07:45;;;;;;;8.57;1.30;;;5.80;99.90;;;;;;4952767;29;20130;-81
2023/12/30 00:10:11;;;;;;;5.97;1.17;;;5.70;99.90;;;;;;4952676;29;20071;-81
2023/12/30 00:12:38;;;;;;;5.18;1.05;;;5.70;99.90;;;;;;4949726;29;20040;-81
2023/12/30 00:15:06;;;;;;;3.75;1.25;;;5.70;99.90;;;;;;4947397;29;20039;-81
2023/12/30 00:17:32;;;;;;;5.32;0.90;;;5.70;99.90;;;;;;4946509;29;20071;-82
2023/12/30 00:19:59;;;;;;;7.95;1.10;;;6.00;99.90;;;;;;4940508;29;20087;-82
2023/12/30 00:22:25;;;;;;;7.25;1.10;;;5.60;99.90;;;;;;4953285;29;20043;-81
2023/12/30 00:24:52;;;;;;;7.55;1.25;;;6.50;99.90;;;;;;4952643;29;20118;-82
2023/12/30 00:27:19;;;;;;;5.88;1.17;;;5.60;99.90;;;;;;4953092;29;20047;-81
2023/12/30 00:29:45;;;;;;;8.20;0.93;;;6.00;99.90;;;;;;4949751;29;20047;-81
2023/12/30 00:32:12;;;;;;;7.38;1.17;;;5.60;99.90;;;;;;4940221;29;20054;-81
2023/12/30 00:34:38;;;;;;;3.40;1.00;;;5.60;99.90;;;;;;4952765;29;20095;-81
2023/12/30 00:37:05;;;;;;;10.45;1.52;;;5.60;99.90;;;;;;4967083;29;20035;-81
2023/12/30 00:39:32;;;;;;;8.25;1.20;;;5.70;99.90;;;;;;4952888;29;20035;-81
2023/12/30 00:41:58;;;;;;;13.60;2.30;;;5.80;99.90;;;;;;4945370;29;20047;-81
2023/12/30 00:44:25;;;;;;;11.93;1.90;;;5.70;99.90;;;;;;4947333;29;20131;-81
2023/12/30 00:46:51;;;;;;;11.50;1.50;;;5.70;99.90;;;;;;4945074;29;20046;-81
2023/12/30 00:49:18;;;;;;;10.20;1.23;;;5.70;99.90;;;;;;4963687;29;20058;-81
2023/12/30 00:51:45;;;;;;;6.10;1.77;;;6.60;99.90;;;;;;4952571;29;20044;-81
2023/12/30 00:54:11;;;;;;;12.25;1.60;;;5.70;99.90;;;;;;4952351;29;20126;-81
2023/12/30 00:56:38;;;;;;;12.57;1.55;;;5.70;99.90;;;;;;4952320;29;20122;-81
2023/12/30 00:59:04;;;;;;;4.93;1.40;;;5.70;99.90;;;;;;4964483;29;20456;-81
2023/12/30 01:01:31;;;;;;;7.93;1.60;;;5.80;99.90;;;;;;4969128;29;20040;-82
2023/12/30 01:03:58;;;;;;;12.65;1.50;;;6.10;99.90;;;;;;4972091;29;20047;-82
2023/12/30 01:06:24;;;;;;;8.63;1.50;;;5.70;99.90;;;;;;4947100;29;20044;-81
2023/12/30 01:08:51;;;;;;;8.60;1.42;;;5.60;99.90;;;;;;4949794;29;20047;-81
2023/12/30 01:11:17;;;;;;;8.93;1.58;;;5.60;99.90;;;;;;4956183;29;20525;-81
2023/12/30 01:13:44;;;;;;;12.15;1.40;;;5.60;99.90;;;;;;4939248;29;20044;-82
2023/12/30 01:16:11;;;;;;;7.72;1.45;;;5.70;99.90;;;;;;4929263;29;20047;-81
2023/12/30 01:18:40;;;;;;;11.38;2.03;;;5.60;99.90;;;;;;4939998;29;20040;-81
2023/12/30 01:21:06;;;;;;;8.32;1.85;;;5.80;99.90;;;;;;4948542;29;20048;-81
2023/12/30 01:23:33;;;;;;;11.25;1.75;;;6.20;99.90;;;;;;4939035;29;20063;-81
2023/12/30 01:25:59;;;;;;;10.57;1.42;;;6.30;99.90;;;;;;4930522;29;20512;-81
2023/12/30 01:28:26;;;;;;;4.32;1.30;;;6.70;99.90;;;;;;4941544;29;20036;-81
2023/12/30 01:30:53;;;;;;;9.27;1.50;;;6.50;99.90;;;;;;4942077;29;20067;-81
2023/12/30 01:33:20;;;;;;;6.82;1.42;;;5.60;99.90;;;;;;4975150;29;20054;-81
2023/12/30 01:35:46;;;;;;;10.73;1.63;;;5.60;99.90;;;;;;4941512;29;20071;-81
2023/12/30 01:38:13;;;;;;;6.18;1.40;;;5.60;99.90;;;;;;4940068;29;20549;-81
2023/12/30 01:40:39;;;;;;;7.80;1.23;;;5.70;99.90;;;;;;4932226;29;20143;-81
2023/12/30 01:43:06;;;;;;;10.93;1.55;;;5.60;99.90;;;;;;4936409;29;20071;-81
2023/12/30 01:45:33;;;;;;;6.95;1.60;;;5.60;99.90;;;;;;4921851;29;20054;-81
2023/12/30 01:48:01;;;;;;;8.13;1.45;;;5.70;99.90;;;;;;4929019;29;20103;-81
2023/12/30 01:50:28;;;;;;;6.53;1.15;;;5.70;99.90;;;;;;4929336;29;20440;-81
2023/12/30 01:52:55;;;;;;;6.07;1.20;;;5.70;99.90;;;;;;4943067;29;20043;-81
2023/12/30 01:55:22;;;;;;;11.35;1.98;;;6.60;99.90;;;;;;4928800;29;20061;-81
2023/12/30 01:57:48;;;;;;;4.72;1.25;;;6.10;99.90;;;;;;4937462;29;20122;-81
2023/12/30 02:00:22;;;;;;;7.53;1.27;;;5.60;99.90;;;;;;4929370;29;20046;-81
2023/12/30 02:02:49;;;;;;;11.95;1.33;;;5.60;99.90;;;;;;4935937;29;20477;-81
2023/12/30 02:05:17;;;;;;;6.07;1.30;;;6.30;99.90;;;;;;4945940;29;20116;-80
2023/12/30 02:07:45;;;;;;;6.55;1.25;;;5.60;99.90;;;;;;4940155;29;20039;-81
2023/12/30 02:10:12;;;;;;;8.27;1.30;;;5.60;99.90;;;;;;4954362;29;20533;-81
2023/12/30 02:12:39;;;;;;;8.63;1.13;;;5.60;99.90;;;;;;4956719;29;20071;-81
2023/12/30 02:15:17;;;;;;;8.90;1.35;;;5.60;99.90;;;;;;4954369;29;20096;-81
2023/12/30 02:17:44;;;;;;;10.50;1.60;;;5.60;99.90;;;;;;4942755;29;20075;-81
2023/12/30 02:20:11;;;;;;;8.73;1.50;;;5.60;99.90;;;;;;4955007;29;20485;-81
2023/12/30 02:22:43;;;;;;;8.18;1.38;;;5.70;99.90;;;;;;4954843;29;20040;-81
2023/12/30 02:25:10;;;;;;;9.63;1.33;;;5.70;99.90;;;;;;4941486;29;20060;-81
2023/12/30 02:27:37;;;;;;;6.47;1.10;;;6.00;99.90;;;;;;4954544;29;20043;-81
2023/12/30 02:30:04;;;;;;;10.32;1.30;;;6.60;99.90;;;;;;4952919;29;20059;-81
2023/12/30 02:32:31;;;;;;;9.95;1.23;;;5.90;99.90;;;;;;4954565;29;20175;-81
2023/12/30 02:34:57;;;;;;;5.20;0.98;;;5.90;99.90;;;;;;4954521;29;20553;-81
2023/12/30 02:37:24;;;;;;;8.40;1.25;;;6.00;99.90;;;;;;4954393;29;20109;-81
2023/12/30 02:39:51;;;;;;;7.65;1.23;;;6.00;99.90;;;;;;4951241;29;20147;-81
2023/12/30 02:42:17;;;;;;;8.50;1.50;;;6.00;99.90;;;;;;4949184;29;20505;-81
2023/12/30 02:44:44;;;;;;;8.85;1.27;;;6.60;99.90;;;;;;4954611;29;20055;-81
2023/12/30 02:47:11;;;;;;;7.75;1.23;;;6.10;99.90;;;;;;4970708;29;20063;-81
2023/12/30 02:49:42;;;;;;;7.38;1.38;;;6.30;99.90;;;;;;4953384;29;20044;-81
2023/12/30 02:52:09;;;;;;;5.72;1.00;;;6.10;99.90;;;;;;4959260;29;20063;-81
2023/12/30 02:54:36;;;;;;;7.93;1.17;;;6.10;99.90;;;;;;4951551;29;20040;-81
2023/12/30 02:57:03;;;;;;;6.75;1.60;;;6.50;99.90;;;;;;4954243;29;20051;-81
2023/12/30 02:59:30;;;;;;;5.25;1.00;;;6.20;99.90;;;;;;4953780;29;20044;-81
2023/12/30 03:01:57;;;;;;;7.07;1.38;;;6.20;99.90;;;;;;4953995;29;20098;-81
2023/12/30 03:04:24;;;;;;;11.65;1.40;;;6.20;99.90;;;;;;4941231;29;20044;-81
2023/12/30 03:06:50;;;;;;;4.07;1.10;;;6.30;99.90;;;;;;4950507;29;20048;-81
2023/12/30 03:09:17;;;;;;;9.77;1.40;;;6.30;99.90;;;;;;4949440;29;20083;-81
2023/12/30 03:11:43;;;;;;;7.53;1.27;;;6.30;99.90;;;;;;4953597;29;20075;-81
2023/12/30 03:14:10;;;;;;;9.55;1.15;;;7.00;99.90;;;;;;4953318;29;20091;-81
2023/12/30 03:16:37;;;;;;;9.13;1.30;;;6.30;99.90;;;;;;4950264;29;20074;-81
2023/12/30 03:19:03;;;;;;;8.25;1.65;;;7.30;99.90;;;;;;4950675;29;20394;-81
2023/12/30 03:21:30;;;;;;;6.82;1.25;;;6.30;99.90;;;;;;4953767;29;20067;-81
2023/12/30 03:23:57;;;;;;;7.85;1.50;;;6.60;99.90;;;;;;4951817;29;20051;-81
2023/12/30 03:26:23;;;;;;;6.90;1.27;;;6.30;99.90;;;;;;4958756;29;20043;-81
2023/12/30 03:28:50;;;;;;;9.20;1.35;;;6.40;99.90;;;;;;4986129;29;20055;-81
2023/12/30 03:31:24;;;;;;;8.77;1.23;;;6.30;99.90;;;;;;4969385;29;20122;-81
2023/12/30 03:33:51;;;;;;;7.47;1.20;;;6.50;99.90;;;;;;4941080;29;20102;-81
2023/12/30 03:36:18;;;;;;;17.17;2.05;;;6.40;99.90;;;;;;4968958;29;20114;-81
2023/12/30 03:38:48;;;;;;;8.63;1.67;;;6.50;99.90;;;;;;4953417;29;20044;-81
2023/12/30 03:41:15;;;;;;;5.35;1.00;;;6.40;99.90;;;;;;4952690;29;20713;-81
2023/12/30 03:43:42;;;;;;;10.52;1.40;;;6.40;99.90;;;;;;4953401;29;20066;-81
2023/12/30 03:46:09;;;;;;;7.18;1.50;;;6.50;99.90;;;;;;4951150;29;20036;-81
2023/12/30 03:48:36;;;;;;;6.97;1.40;;;7.40;99.90;;;;;;4942687;29;20052;-81
2023/12/30 03:51:05;;;;;;;8.27;1.58;;;6.50;99.90;;;;;;4953188;29;20035;-81
2023/12/30 03:53:32;;;;;;;12.07;1.55;;;6.40;99.90;;;;;;4959816;29;20040;-81
2023/12/30 03:56:00;;;;;;;10.85;1.58;;;6.90;99.90;;;;;;4965613;29;20501;-81
2023/12/30 03:58:26;;;;;;;5.97;1.30;;;7.40;99.90;;;;;;4952954;29;20116;-81
2023/12/30 04:00:53;;;;;;;7.07;1.27;;;7.40;99.90;;;;;;4953023;29;20134;-81
2023/12/30 04:03:20;;;;;;;7.00;1.30;;;6.40;99.90;;;;;;4952879;29;20050;-81
2023/12/30 04:05:46;;;;;;;9.20;1.48;;;6.40;99.90;;;;;;4951539;29;20039;-81
2023/12/30 04:08:13;;;;;;;6.38;1.30;;;6.40;99.90;;;;;;4955465;29;20048;-81
2023/12/30 04:10:40;;;;;;;11.07;1.60;;;6.30;99.90;;;;;;4950834;29;20106;-81
2023/12/30 04:13:06;;;;;;;6.05;1.10;;;6.50;99.90;;;;;;4953550;29;20046;-81
2023/12/30 04:15:33;;;;;;;9.07;1.48;;;6.40;99.90;;;;;;4968652;29;20075;-81
2023/12/30 04:18:00;;;;;;;11.13;1.58;;;6.80;99.90;;;;;;4968790;29;20489;-81
2023/12/30 04:20:26;;;;;;;9.23;1.73;;;6.20;99.90;;;;;;4948310;29;20039;-81
2023/12/30 04:22:54;;;;;;;8.82;2.03;;;7.10;99.90;;;;;;4952841;29;20036;-81
2023/12/30 04:25:21;;;;;;;8.00;1.33;;;6.20;99.90;;;;;;4952559;29;20050;-81
2023/12/30 04:27:48;;;;;;;10.15;1.08;;;6.10;99.90;;;;;;4952822;29;20036;-81
2023/12/30 04:30:14;;;;;;;9.07;1.25;;;6.60;99.90;;;;;;4968098;29;20065;-81
2023/12/30 04:32:41;;;;;;;9.60;1.40;;;6.00;99.90;;;;;;4947786;29;20044;-81
2023/12/30 04:35:08;;;;;;;10.20;2.33;;;6.20;99.90;;;;;;4952895;29;20044;-81
2023/12/30 04:37:34;;;;;;;9.60;1.48;;;6.00;99.90;;;;;;4957343;29;20709;-82
2023/12/30 04:40:01;;;;;;;9.50;1.48;;;6.00;99.90;;;;;;4946492;29;20047;-82
2023/12/30 04:42:27;;;;;;;10.48;1.50;;;6.20;99.90;;;;;;4975083;29;20040;-82
2023/12/30 04:44:54;;;;;;;6.43;1.17;;;5.90;99.90;;;;;;4941081;29;20107;-82
2023/12/30 04:47:21;;;;;;;9.80;1.30;;;6.40;99.90;;;;;;4952104;29;20043;-81
2023/12/30 04:49:47;;;;;;;9.57;1.33;;;5.90;99.90;;;;;;4943900;29;20051;-82
2023/12/30 04:52:14;;;;;;;10.55;1.58;;;6.40;99.90;;;;;;4956495;29;20036;-82
2023/12/30 04:54:42;;;;;;;11.90;1.70;;;6.10;99.90;;;;;;4974327;29;20047;-82
2023/12/30 04:57:09;;;;;;;11.27;1.38;;;6.00;99.90;;;;;;4974945;29;20044;-81
2023/12/30 04:59:35;;;;;;;8.57;1.17;;;6.20;99.90;;;;;;4971143;29;20051;-81
2023/12/30 05:02:03;;;;;;;7.18;1.40;;;6.00;99.90;;;;;;4949847;29;20413;-82
2023/12/30 05:04:29;;;;;;;9.90;1.58;;;6.10;99.90;;;;;;4946356;29;20044;-82
2023/12/30 05:06:56;;;;;;;10.50;1.67;;;6.10;99.90;;;;;;4958277;29;20050;-81
2023/12/30 05:09:23;;;;;;;8.73;1.30;;;6.10;99.90;;;;;;4958596;29;20055;-81
2023/12/30 05:11:50;;;;;;;9.48;1.23;;;6.80;99.90;;;;;;4956926;29;20248;-81
2023/12/30 05:14:18;;;;;;;6.78;1.60;;;6.10;99.90;;;;;;4958792;29;20674;-82
2023/12/30 05:16:45;;;;;;;5.70;1.50;;;6.10;99.90;;;;;;4974442;29;20050;-81
2023/12/30 05:19:12;;;;;;;9.35;1.63;;;6.10;99.90;;;;;;4958546;29;20062;-81
2023/12/30 05:21:39;;;;;;;14.52;1.90;;;6.60;99.90;;;;;;4959067;29;20039;-82
2023/12/30 05:24:06;;;;;;;9.55;1.88;;;6.10;99.90;;;;;;4946092;29;20039;-81
2023/12/30 05:26:34;;;;;;;5.82;1.50;;;6.10;99.90;;;;;;4974518;29;20043;-82
2023/12/30 05:29:00;;;;;;;12.02;1.50;;;6.00;99.90;;;;;;4958734;29;20039;-82
2023/12/30 05:31:27;;;;;;;10.13;1.42;;;6.10;99.90;;;;;;4947889;29;20092;-81
2023/12/30 05:33:53;;;;;;;10.10;2.05;;;6.10;99.90;;;;;;4958735;29;20039;-81
2023/12/30 05:36:20;;;;;;;9.68;1.83;;;6.80;99.90;;;;;;4966713;29;20385;-82
2023/12/30 05:38:47;;;;;;;11.52;1.88;;;6.20;99.90;;;;;;4966469;29;20047;-81
2023/12/30 05:41:13;;;;;;;12.82;1.73;;;6.10;99.90;;;;;;4956651;29;20078;-82
2023/12/30 05:43:41;;;;;;;11.80;1.27;;;6.20;99.90;;;;;;4960213;29;20044;-82
2023/12/30 05:46:15;;;;;;;8.18;1.27;;;6.20;99.90;;;;;;4965446;29;20070;-81
2023/12/30 05:48:42;;;;;;;15.75;1.80;;;7.10;99.90;;;;;;4956511;29;20449;-82
2023/12/30 05:51:10;;;;;;;10.85;1.70;;;6.10;99.90;;;;;;4955341;29;20035;-81
2023/12/30 05:53:36;;;;;;;9.23;1.58;;;6.60;99.90;;;;;;4964365;29;20520;-82
2023/12/30 05:56:03;;;;;;;8.07;1.52;;;7.20;99.90;;;;;;4937439;29;20129;-82
2023/12/30 05:58:30;;;;;;;7.18;1.17;;;6.00;99.90;;;;;;4955650;29;20050;-81
2023/12/30 06:00:56;;;;;;;7.15;1.10;;;6.00;99.90;;;;;;4955122;29;20501;-82
2023/12/30 06:03:23;;;;;;;17.33;1.67;;;6.00;99.90;;;;;;4955338;29;20043;-82
2023/12/30 06:05:50;;;;;;;11.82;1.50;;;6.60;99.90;;;;;;4955237;29;20051;-82
2023/12/30 06:08:17;;;;;;;10.10;1.65;;;6.00;99.90;;;;;;4955060;29;20484;-82
2023/12/30 06:10:49;;;;;;;13.13;1.80;;;6.50;99.90;;;;;;4942357;29;20056;-82
2023/12/30 06:13:16;;;;;;;11.52;2.00;;;5.90;99.90;;;;;;4945883;29;20040;-82
2023/12/30 06:15:48;;;;;;;10.98;2.05;;;6.00;99.90;;;;;;4954954;29;20036;-82
2023/12/30 06:18:15;;;;;;;6.57;1.20;;;6.50;99.90;;;;;;4970972;29;20099;-82
2023/12/30 06:20:46;;;;;;;13.30;1.63;;;6.00;99.90;;;;;;4965746;29;20044;-82
2023/12/30 06:23:13;;;;;;;11.13;1.73;;;6.50;99.90;;;;;;4948074;29;20453;-82
2023/12/30 06:25:40;;;;;;;8.55;1.30;;;6.10;99.90;;;;;;4955191;29;20036;-82
2023/12/30 06:28:06;;;;;;;10.77;1.73;;;6.30;99.90;;;;;;4954490;29;20043;-82
2023/12/30 06:30:33;;;;;;;14.18;1.50;;;6.50;99.90;;;;;;4939103;29;20119;-82
2023/12/30 06:33:06;;;;;;;12.60;1.40;;;6.10;99.90;;;;;;4980880;28;20126;-82
2023/12/30 06:35:34;;;;;;;9.85;1.90;;;6.20;99.90;;;;;;4954871;29;20397;-82
2023/12/30 06:38:01;;;;;;;8.35;1.50;;;6.10;99.90;;;;;;4953400;29;20071;-82
2023/12/30 06:40:28;;;;;;;9.50;1.60;;;7.10;99.90;;;;;;4954756;29;20050;-81
2023/12/30 06:42:54;;;;;;;12.18;1.50;;;6.60;99.90;;;;;;4948628;29;20040;-82
2023/12/30 06:45:21;;;;;;;6.47;1.20;;;6.10;99.90;;;;;;4944163;29;20039;-82
2023/12/30 06:47:48;;;;;;;15.80;2.05;;;6.00;99.90;;;;;;4954416;29;20040;-82
2023/12/30 06:50:15;;;;;;;8.45;1.52;;;6.00;99.90;;;;;;4970276;29;20054;-82
2023/12/30 06:52:41;;;;;;;12.27;1.90;;;6.10;99.90;;;;;;4954741;29;20093;-81
2023/12/30 06:55:11;;;;;;;8.75;1.98;;;6.00;99.90;;;;;;4941928;29;20500;-82
2023/12/30 06:57:38;;;;;;;13.20;1.35;;;6.00;99.90;;;;;;4954164;29;20040;-82
2023/12/30 07:00:05;;;;;;;9.48;1.38;;;6.40;99.90;;;;;;4946592;29;20176;-82
2023/12/30 07:02:32;;;;;;;10.95;1.83;;;6.00;99.90;;;;;;4945263;29;20048;-82
2023/12/30 07:04:59;;;;;;;12.80;1.65;;;6.00;99.90;;;;;;4969941;29;20043;-82
2023/12/30 07:07:25;;;;;;;8.60;1.30;;;6.00;99.90;;;;;;4969679;29;20386;-82
2023/12/30 07:09:52;;;;;;;7.65;1.40;;;6.00;99.90;;;;;;4945341;29;20401;-82
2023/12/30 07:12:18;;;;;;;9.65;1.45;;;6.60;99.90;;;;;;4954367;29;20051;-82
2023/12/30 07:14:45;;;;;;;8.23;1.45;;;6.10;99.90;;;;;;4945240;29;20128;-82
2023/12/30 07:17:12;;;;;;;14.13;1.88;;;6.20;99.90;;;;;;4950490;29;20032;-82
2023/12/30 07:19:38;;;;;;;9.77;1.67;;;5.90;99.90;;;;;;4954063;29;20039;-82
2023/12/30 07:22:05;;;;;;;12.80;1.77;;;6.70;99.90;;;;;;4947018;29;20048;-82
2023/12/30 07:24:31;;;;;;;7.07;1.85;;;5.80;99.90;;;;;;4963390;29;20564;-81
2023/12/30 07:26:58;;;;;;;8.82;1.48;;;5.80;99.90;;;;;;4938727;29;20088;-82
2023/12/30 07:29:25;;;;;;;11.75;1.90;;;5.70;99.90;;;;;;4950853;29;20063;-82
2023/12/30 07:31:52;;;;;;;9.55;1.45;;;6.40;99.90;;;;;;4950576;29;20043;-82
2023/12/30 07:34:18;;;;;;;10.68;1.48;;;5.70;99.90;;;;;;4945091;29;20036;-82
2023/12/30 07:36:45;;;;;;;12.07;1.80;;;5.70;99.90;;;;;;4964190;29;20046;-82
2023/12/30 07:39:13;;;;;;;13.88;1.85;;;5.70;99.90;;;;;;4944361;29;20051;-82
2023/12/30 07:41:40;;;;;;;7.53;1.58;;;5.70;99.90;;;;;;4952314;29;20043;-82
2023/12/30 07:44:06;;;;;;;13.93;1.88;;;6.40;99.90;;;;;;4964613;29;20464;-82
2023/12/30 07:46:33;;;;;;;14.05;2.25;;;6.90;99.90;;;;;;4943547;29;20042;-82
2023/12/30 07:48:59;;;;;;;10.48;2.15;;;6.30;99.90;;;;;;4958497;29;20044;-82
2023/12/30 07:51:26;;;;;;;11.68;2.38;;;5.70;99.90;;;;;;4963349;29;20168;-82
2023/12/30 07:53:53;;;;;;;10.93;1.80;;;5.70;99.90;;;;;;4956172;29;20058;-82
2023/12/30 07:56:19;;;;;;;11.48;1.85;;;5.70;99.90;;;;;;4952050;29;20122;-82
2023/12/30 07:58:46;;;;;;;7.90;2.10;;;5.70;99.90;;;;;;4951680;29;20493;-82
2023/12/30 08:01:13;;;;;;;11.48;2.42;;;5.70;99.90;;;;;;4965094;29;20036;-82
2023/12/30 08:03:39;;;;;;;10.73;2.22;;;5.70;99.90;;;;;;4947264;29;20047;-81
2023/12/30 08:06:06;;;;;;;8.93;2.03;;;5.80;99.90;;;;;;4943850;29;20062;-81
2023/12/30 08:08:33;;;;;;;13.60;1.95;;;5.80;99.90;;;;;;4965287;29;20031;-81
2023/12/30 08:11:00;;;;;;;11.82;1.85;;;6.60;99.90;;;;;;4935625;29;20062;-81
2023/12/30 08:13:26;;;;;;;14.27;1.98;;;6.00;99.90;;;;;;4952471;29;20044;-81
2023/12/30 08:15:57;;;;;;;9.80;2.00;;;5.90;99.90;;;;;;4944134;29;20048;-81
2023/12/30 08:18:23;;;;;;;7.85;1.58;;;6.00;99.90;;;;;;4962498;29;20134;-81
2023/12/30 08:20:51;;;;;;;14.43;2.50;;;6.90;99.90;;;;;;4931731;29;20473;-81
2023/12/30 08:23:17;;;;;;;18.05;2.25;;;5.90;99.90;;;;;;4951616;29;20126;-81
2023/12/30 08:25:44;;;;;;;11.00;2.40;;;5.90;99.90;;;;;;4942352;29;20127;-82
2023/12/30 08:28:11;;;;;;;11.65;1.65;;;6.80;99.90;;;;;;4946381;29;20130;-81
2023/12/30 08:30:38;;;;;;;12.30;1.92;;;6.40;99.90;;;;;;4925455;29;20508;-81
2023/12/30 08:33:07;;;;;;;9.20;1.60;;;6.90;99.90;;;;;;4929311;29;20037;-80
2023/12/30 08:35:34;;;;;;;8.73;2.45;;;6.00;99.90;;;;;;4943977;29;20071;-80
2023/12/30 08:38:01;;;;;;;6.53;1.35;;;6.10;99.90;;;;;;4925698;29;20122;-81
2023/12/30 08:40:28;;;;;;;8.27;2.33;;;7.00;99.90;;;;;;4930398;29;20039;-80
2023/12/30 08:42:56;;;;;;;10.45;1.42;;;6.70;99.90;;;;;;4947745;29;20115;-81
2023/12/30 08:45:22;;;;;;;6.60;1.20;;;6.00;99.90;;;;;;4934909;29;20035;-81
2023/12/30 08:47:50;;;;;;;12.40;1.75;;;6.90;99.90;;;;;;4933207;29;20040;-80
2023/12/30 08:50:17;;;;;;;13.05;2.03;;;6.00;99.90;;;;;;4952284;29;20494;-86
2023/12/30 08:52:49;;;;;;;4.70;1.40;;;6.00;99.90;;;;;;4936718;29;20040;-84
2023/12/30 08:55:16;;;;;;;11.48;1.90;;;6.00;99.90;;;;;;4940508;29;20039;-86
2023/12/30 08:57:43;;;;;;;8.00;1.90;;;5.70;99.90;;;;;;4944755;29;20044;-87
2023/12/30 09:00:10;;;;;;;12.77;1.92;;;6.80;99.90;;;;;;4925883;29;20044;-86
2023/12/30 09:02:46;;;;;;;8.32;1.77;;;6.00;99.90;;;;;;4918035;29;20040;-85
2023/12/30 09:05:19;;;;;;;11.57;1.50;;;6.00;99.90;;;;;;4940690;29;20107;-85
2023/12/30 09:07:48;;;;;;;8.15;1.50;;;6.00;99.90;;;;;;4934006;29;20054;-86
2023/12/30 09:10:17;;;;;;;12.45;1.50;;;5.00;99.90;;;;;;4923761;29;20055;-86
2023/12/30 09:12:47;;;;;;;11.63;2.03;;;6.50;99.90;;;;;;4953304;29;20036;-85
2023/12/30 09:15:13;;;;;;;8.02;1.40;;;6.00;99.90;;;;;;4956007;29;20042;-84
2023/12/30 09:17:40;;;;;;;12.35;2.00;;;6.00;99.90;;;;;;4951856;29;20047;-83
2023/12/30 09:20:08;;;;;;;11.10;1.55;;;6.00;99.90;;;;;;4952317;29;20043;-85
2023/12/30 09:22:35;;;;;;;14.88;2.08;;;6.00;99.90;;;;;;4950662;29;20056;-84
2023/12/30 09:25:01;;;;;;;9.10;1.50;;;5.90;99.90;;;;;;4953200;29;20051;-85
2023/12/30 09:27:28;;;;;;;8.27;1.40;;;6.40;99.90;;;;;;4950495;29;20556;-84
2023/12/30 09:29:55;;;;;;;12.10;2.78;;;5.90;99.90;;;;;;4955343;29;20050;-84
2023/12/30 09:32:23;;;;;;;10.88;1.75;;;6.70;99.90;;;;;;4948893;29;20040;-85
2023/12/30 09:34:53;;;;;;;12.20;1.65;;;5.90;99.90;;;;;;4950471;29;20787;-84
2023/12/30 09:37:20;;;;;;;10.57;1.73;;;5.90;99.90;;;;;;4958589;29;20078;-85
2023/12/30 09:39:47;;;;;;;9.57;1.40;;;5.90;99.90;;;;;;4955217;29;20051;-85
2023/12/30 09:42:14;;;;;;;6.93;1.42;;;6.80;99.90;;;;;;4953836;29;20070;-86
2023/12/30 09:44:41;;;;;;;7.63;1.63;;;5.90;99.90;;;;;;4955124;29;20075;-85
2023/12/30 09:47:10;;;;;;;11.38;1.55;;;5.90;99.90;;;;;;4955425;29;20046;-85
2023/12/30 09:49:37;;;;;;;7.00;1.42;;;5.90;99.90;;;;;;4938066;29;20040;-86
2023/12/30 09:52:08;;;;;;;11.15;1.60;;;6.80;99.90;;;;;;4949255;29;20493;-85
2023/12/30 09:54:35;;;;;;;9.18;1.98;;;5.90;99.90;;;;;;4955162;29;20044;-85
2023/12/30 09:57:03;;;;;;;17.35;2.42;;;6.80;99.90;;;;;;4962170;29;20047;-86
2023/12/30 09:59:35;;;;;;;10.25;2.10;;;6.00;99.90;;;;;;4949316;29;20531;-84
2023/12/30 10:02:09;;;;;;;10.98;1.70;;;6.00;99.90;;;;;;4947528;29;20128;-85
2023/12/30 10:04:37;;;;;;;7.75;1.48;;;6.00;99.90;;;;;;4951562;29;20050;-84
2023/12/30 10:07:07;;;;;;;9.10;1.30;;;6.10;99.90;;;;;;4954961;29;20045;-86
2023/12/30 10:09:34;;;;;;;9.82;1.60;;;6.10;99.90;;;;;;4950689;29;20048;-85
2023/12/30 10:12:02;;;;;;;8.82;1.30;;;6.20;99.90;;;;;;4954905;29;20564;-86
2023/12/30 10:14:28;;;;;;;5.78;1.83;;;6.20;99.90;;;;;;4955790;29;20044;-85
2023/12/30 10:16:55;;;;;;;8.32;1.30;;;6.30;99.90;;;;;;4962871;29;20043;-85
2023/12/30 10:19:22;;;;;;;5.25;1.20;;;6.30;99.90;;;;;;4954853;29;20130;-85
2023/12/30 10:21:49;;;;;;;7.90;1.13;;;7.20;99.90;;;;;;4948634;29;20130;-87
2023/12/30 10:24:16;;;;;;;9.88;1.60;;;7.10;99.90;;;;;;4945987;29;20083;-85
2023/12/30 10:26:43;;;;;;;6.53;1.33;;;6.40;99.90;;;;;;4951357;29;20558;-86
2023/12/30 10:29:11;;;;;;;10.20;1.73;;;6.50;99.90;;;;;;4942698;29;20048;-85
2023/12/30 10:31:38;;;;;;;7.95;1.52;;;6.50;99.90;;;;;;4952860;29;20046;-86
2023/12/30 10:34:05;;;;;;;8.73;1.42;;;6.50;99.90;;;;;;4945902;29;20819;-86
2023/12/30 10:36:32;;;;;;;9.65;1.70;;;6.60;99.90;;;;;;4938173;29;20036;-84
2023/12/30 10:39:00;;;;;;;11.13;1.48;;;7.20;99.90;;;;;;4969987;29;20151;-86
2023/12/30 10:41:27;;;;;;;7.15;1.42;;;6.80;99.90;;;;;;4942704;29;20119;-85
2023/12/30 10:43:55;;;;;;;7.97;1.60;;;7.60;99.90;;;;;;4954219;29;20123;-84
2023/12/30 10:46:25;;;;;;;9.13;1.73;;;6.60;99.90;;;;;;4954196;29;20102;-84
2023/12/30 10:48:56;;;;;;;12.13;1.77;;;6.60;99.90;;;;;;4965844;29;20505;-83
2023/12/30 10:51:25;;;;;;;10.27;1.70;;;6.70;99.90;;;;;;4964430;29;20406;-85
2023/12/30 10:54:04;;;;;;;10.48;1.73;;;7.50;99.90;;;;;;4953828;29;20528;-84
2023/12/30 10:56:39;;;;;;;8.75;1.40;;;6.70;99.90;;;;;;4954111;29;20152;-84
2023/12/30 10:59:07;;;;;;;8.77;1.63;;;6.70;99.90;;;;;;4953906;29;20096;-85
2023/12/30 11:01:36;;;;;;;9.32;1.48;;;6.70;99.90;;;;;;4944085;29;20040;-85
2023/12/30 11:04:11;;;;;;;8.77;2.47;;;7.00;99.90;;;;;;4951393;29;20122;-86
2023/12/30 11:06:53;;;;;;;10.77;1.65;;;6.80;99.90;;;;;;4946735;29;20567;-86
2023/12/30 11:09:24;;;;;;;6.18;1.60;;;6.80;99.90;;;;;;4942923;29;20055;-85
2023/12/30 11:11:59;;;;;;;8.90;1.77;;;6.80;99.90;;;;;;4950770;29;20040;-84
2023/12/30 11:14:26;;;;;;;11.90;2.53;;;7.40;99.90;;;;;;4945714;29;20040;-85
2023/12/30 11:16:54;;;;;;;8.60;1.65;;;6.90;99.90;;;;;;4958078;29;20047;-85
2023/12/30 11:19:25;;;;;;;6.45;1.67;;;6.90;99.90;;;;;;4941314;29;20036;-85
2023/12/30 11:21:54;;;;;;;7.30;1.60;;;7.00;99.90;;;;;;4953585;29;20040;-84
2023/12/30 11:24:22;;;;;;;11.80;1.77;;;7.00;99.90;;;;;;4952676;29;20044;-84
2023/12/30 11:26:53;;;;;;;9.50;1.65;;;7.00;99.90;;;;;;4953612;29;20083;-84
2023/12/30 11:29:25;;;;;;;7.50;1.45;;;7.00;99.90;;;;;;4964914;29;20083;-85
2023/12/30 11:31:53;;;;;;;7.43;1.67;;;8.00;99.90;;;;;;4949676;29;20122;-84
2023/12/30 11:34:20;;;;;;;12.77;2.00;;;7.00;99.90;;;;;;4944545;29;20052;-85
2023/12/30 11:36:49;;;;;;;5.43;1.42;;;7.00;99.90;;;;;;4945490;29;20039;-85
2023/12/30 11:39:31;;;;;;;10.25;1.50;;;7.30;99.90;;;;;;4946489;29;20040;-85
2023/12/30 11:42:03;;;;;;;5.53;1.13;;;7.00;99.90;;;;;;4960697;29;20411;-85
2023/12/30 11:44:30;;;;;;;11.65;1.58;;;7.00;99.90;;;;;;4965328;29;20135;-83
2023/12/30 11:46:57;;;;;;;8.23;1.65;;;8.00;99.90;;;;;;4945060;29;20050;-85
2023/12/30 11:49:25;;;;;;;15.73;3.15;;;7.00;99.90;;;;;;4965204;29;20528;-85
2023/12/30 11:52:02;;;;;;;5.30;1.50;;;7.00;99.90;;;;;;4947727;29;20036;-85
2023/12/30 11:54:29;;;;;;;8.60;1.40;;;7.10;99.90;;;;;;4958101;29;20075;-85
2023/12/30 11:56:55;;;;;;;8.43;1.70;;;7.00;99.90;;;;;;4940351;29;20617;-85
2023/12/30 11:59:22;;;;;;;8.43;1.52;;;7.10;99.90;;;;;;4953050;29;20054;-85
2023/12/30 12:01:49;;;;;;;8.80;1.50;;;7.10;99.90;;;;;;4952654;29;20040;-85
2023/12/30 12:04:15;;;;;;;11.63;1.70;;;7.10;99.90;;;;;;4944577;29;20485;-85
2023/12/30 12:06:42;;;;;;;8.38;2.03;;;7.10;99.90;;;;;;4939192;29;20051;-84
2023/12/30 12:09:10;;;;;;;11.73;4.57;;;7.10;99.90;;;;;;4949434;29;20401;-85
2023/12/30 12:11:36;;;;;;;11.82;3.53;;;7.10;99.90;;;;;;4965676;29;20052;-85
2023/12/30 12:14:04;;;;;;;9.07;2.25;;;7.80;99.90;;;;;;4949808;29;20054;-84
2023/12/30 12:16:32;;;;;;;13.73;2.03;;;7.20;99.90;;;;;;4952958;29;20040;-85
2023/12/30 12:19:02;;;;;;;7.88;2.00;;;7.30;99.90;;;;;;4948694;29;20040;-85
2023/12/30 12:21:29;;;;;;;10.85;1.98;;;7.40;99.90;;;;;;4940388;29;20044;-84
2023/12/30 12:23:55;;;;;;;10.30;2.42;;;7.30;99.90;;;;;;4943782;29;20042;-85
2023/12/30 12:26:23;;;;;;;10.65;2.42;;;7.30;99.90;;;;;;4955048;29;20040;-85
2023/12/30 12:28:53;;;;;;;8.25;1.65;;;7.30;99.90;;;;;;4959945;29;20092;-85
2023/12/30 12:31:19;;;;;;;6.93;1.85;;;7.30;99.90;;;;;;4938693;29;20036;-85
2023/12/30 12:33:46;;;;;;;12.85;1.67;;;7.70;99.90;;;;;;4952751;29;20046;-85
2023/12/30 12:36:13;;;;;;;10.45;1.75;;;7.30;99.90;;;;;;4950198;29;20036;-85
2023/12/30 12:38:39;;;;;;;11.60;1.92;;;7.40;99.90;;;;;;4967701;29;20051;-85
2023/12/30 12:41:06;;;;;;;8.98;2.25;;;7.30;99.90;;;;;;4952295;29;20063;-85
2023/12/30 12:43:33;;;;;;;8.48;2.00;;;7.20;99.90;;;;;;4952603;29;20043;-85
2023/12/30 12:46:02;;;;;;;12.02;1.60;;;8.00;99.90;;;;;;4952424;29;20043;-85
2023/12/30 12:48:29;;;;;;;9.32;1.60;;;7.30;99.90;;;;;;4950176;29;20500;-85
2023/12/30 12:50:56;;;;;;;7.38;1.70;;;7.40;99.90;;;;;;4952341;29;20086;-85
2023/12/30 12:53:25;;;;;;;5.75;1.50;;;7.30;99.90;;;;;;4947902;29;20032;-85